Flight Track Log - Related Links

Times and Time Zones

All times are in EDT time to prevent confusion due to time zone crossing. See the N855TA flight status page for this flight to view local times or setup timezone preferences in your user account.

Time Position Orientation Groundspeed Altitude Reporting Facility
EDT Latitude Longitude Course Direction KTS MPH feet Rate Location/Type
Wed 11:39:32 AM 34.8842 -80.6231 180° South 175 201 3,500  Level Atlanta Center
Wed 11:40:21 AM 34.8444 -80.6222 179° South 174 200 3,900 491 Climbing Atlanta Center
Wed 11:41:22 AM 34.7964 -80.6242 182° South 171 197 4,400 492 Climbing Atlanta Center
Wed 11:42:23 AM 34.7506 -80.6258 182° South 165 190 4,900 492 Climbing Atlanta Center
Wed 11:44:00 AM 34.6801 -80.6167 180° South  Level FlightAware Approximate
Wed 11:45:00 AM 34.7550 -80.6167 180° South  Level FlightAware Approximate
Wed 11:51:00 AM 34.3748 -80.6167 180° South  Level FlightAware Approximate
Wed 11:52:00 AM 34.3312 -80.6167 180° South  Level FlightAware Approximate
Wed 11:53:00 AM 34.2876 -80.6167 180° South  Level FlightAware Approximate
Wed 11:54:00 AM 34.2439 -80.6167 180° South  Level FlightAware Approximate
Wed 11:55:00 AM 34.2003 -80.6167 180° South  Level FlightAware Approximate
Wed 11:56:00 AM 34.1567 -80.6167 180° South  Level FlightAware Approximate
Wed 11:57:00 AM 34.1131 -80.6167 180° South  Level FlightAware Approximate
Wed 11:58:00 AM 34.0695 -80.6167 180° South  Level FlightAware Approximate
Wed 11:59:00 AM 34.0259 -80.6167 180° South  Level FlightAware Approximate
Wed 12:00:00 PM 33.9823 -80.6167 180° South  Level FlightAware Approximate
Wed 12:01:00 PM 33.9387 -80.6167 180° South  Level FlightAware Approximate
Wed 12:02:00 PM 33.8951 -80.6167 180° South  Level FlightAware Approximate
Wed 12:03:00 PM 33.8515 -80.6167 180° South  Level FlightAware Approximate
Wed 12:04:00 PM 33.8078 -80.6167 180° South  Level FlightAware Approximate
Wed 12:05:00 PM 33.7642 -80.6167 180° South  Level FlightAware Approximate
Wed 12:06:00 PM 33.7206 -80.6167 180° South  Level FlightAware Approximate
Wed 12:07:00 PM 33.6770 -80.6167 180° South  Level FlightAware Approximate
Wed 12:08:00 PM 33.6334 -80.6167 180° South  Level FlightAware Approximate
Wed 12:09:00 PM 33.5898 -80.6167 180° South  Level FlightAware Approximate
Wed 12:10:00 PM 33.5462 -80.6167 180° South  Level FlightAware Approximate
Wed 12:11:00 PM 33.5026 -80.6167 180° South  Level FlightAware Approximate
Wed 12:12:00 PM 33.4590 -80.6167 180° South  Level FlightAware Approximate
Wed 12:13:00 PM 33.4154 -80.6167 180° South  Level FlightAware Approximate
Wed 12:14:00 PM 33.3717 -80.6167 180° South  Level FlightAware Approximate
Wed 12:15:00 PM 33.3281 -80.6167 180° South  Level FlightAware Approximate
Wed 12:16:00 PM 33.2844 -80.6167 180° South  Level FlightAware Approximate
Wed 12:17:00 PM 33.2408 -80.6167 180° South  Level FlightAware Approximate
Wed 12:18:00 PM 33.1972 -80.6167 180° South  Level FlightAware Approximate
Wed 12:19:00 PM 33.1536 -80.6167 180° South  Level FlightAware Approximate
Wed 12:20:00 PM 33.1100 -80.6167 180° South  Level FlightAware Approximate
Wed 12:21:00 PM 33.0664 -80.6167 180° South  Level FlightAware Approximate
Wed 12:22:00 PM 33.0228 -80.6167 180° South  Level FlightAware Approximate
Wed 12:23:00 PM 32.9792 -80.6167 180° South  Level FlightAware Approximate
Wed 12:24:00 PM 32.9356 -80.6167 180° South  Level FlightAware Approximate
Wed 12:25:00 PM 32.8919 -80.6167 180° South  Level FlightAware Approximate
Wed 12:26:00 PM 32.8483 -80.6167 180° South  Level FlightAware Approximate
Wed 12:27:00 PM 32.8047 -80.6167 180° South  Level FlightAware Approximate
Wed 12:28:00 PM 32.7611 -80.6167 180° South  Level FlightAware Approximate
Wed 12:29:00 PM 32.7175 -80.6167 180° South  Level FlightAware Approximate
Wed 12:30:00 PM 32.6739 -80.6193 185° South  Level FlightAware Approximate
Wed 12:31:00 PM 32.6305 -80.6236 185° South  Level FlightAware Approximate
Wed 12:32:00 PM 32.5870 -80.6280 185° South  Level FlightAware Approximate
Wed 12:33:00 PM 32.5436 -80.6323 185° South  Level FlightAware Approximate
Wed 12:34:00 PM 32.5000 -80.6333 180° South  Level FlightAware Approximate
Wed 12:35:00 PM 32.4564 -80.6333 180° South  Level FlightAware Approximate
Wed 12:36:00 PM 32.4128 -80.6333 180° South  Level FlightAware Approximate
Wed 12:37:00 PM 32.4122 -80.6344 180° South  Level Estimated
Wed 12:38:00 PM 32.4122 -80.6344 180° South  Level Estimated
Wed 12:39:00 PM 32.4122 -80.6344 180° South  Level Estimated

Login

Don't have an account? Register now (free) for customized features, flight alerts, and more!